Time;durP1;ratioP1;P1;durP2;ratioP2;P2;SDS_P1;SDS_P2;PMS_P1;PMS_P2;Temp;Humidity;BMP_temperature;BMP_pressure;BME280_temperature;BME280_humidity;BME280_pressure;Samples;Min_cycle;Max_cycle;Signal;HPM_P1;HPM_P2
2021/06/03 00:02:05;;;;;;;4.55;3.60;;;;;;;19.11;67.65;101118.47;5054449;28;20052;-79
2021/06/03 00:05:10;;;;;;;4.65;3.63;;;;;;;19.07;67.89;101111.66;5054678;28;20063;-81
2021/06/03 00:08:16;;;;;;;4.88;3.72;;;;;;;18.97;68.26;101108.25;5054713;28;20067;-78
2021/06/03 00:11:21;;;;;;;4.72;3.85;;;;;;;18.96;68.42;101120.16;5054661;28;20044;-82
2021/06/03 00:14:26;;;;;;;8.70;3.85;;;;;;;18.83;68.84;101113.38;5054510;28;20040;-81
2021/06/03 00:17:30;;;;;;;5.30;3.72;;;;;;;18.81;68.43;101115.38;5052979;28;20045;-81
2021/06/03 00:20:36;;;;;;;4.60;3.47;;;;;;;18.86;68.68;101119.47;5054508;28;20376;-83
2021/06/03 00:23:41;;;;;;;5.05;3.72;;;;;;;18.82;68.42;101117.09;5054162;28;20048;-74
2021/06/03 00:26:45;;;;;;;8.30;3.55;;;;;;;18.71;69.22;101119.31;5054085;28;20044;-77
2021/06/03 00:29:49;;;;;;;7.60;3.83;;;;;;;18.61;69.35;101121.31;5053158;28;20048;-79
2021/06/03 00:32:53;;;;;;;6.60;4.00;;;;;;;18.56;68.98;101113.69;5054263;28;20044;-82
2021/06/03 00:35:58;;;;;;;6.18;4.30;;;;;;;18.45;69.80;101123.97;5054336;28;20060;-82
2021/06/03 00:39:04;;;;;;;4.53;3.80;;;;;;;18.39;70.14;101125.50;5054509;28;20052;-82
2021/06/03 00:42:09;;;;;;;3.90;3.50;;;;;;;18.44;70.04;101128.53;5054228;28;20056;-78
2021/06/03 00:45:20;;;;;;;7.93;3.60;;;;;;;18.31;69.96;101120.03;5052867;28;20056;-81
2021/06/03 00:48:25;;;;;;;6.55;4.40;;;;;;;18.36;70.00;101119.53;5054086;28;20052;-82
2021/06/03 00:51:29;;;;;;;6.88;4.35;;;;;;;18.44;69.61;101120.38;5053242;28;20052;-84
2021/06/03 00:54:35;;;;;;;7.57;4.15;;;;;;;18.30;69.75;101120.19;5053839;28;20060;-86
2021/06/03 00:57:40;;;;;;;7.95;3.78;;;;;;;18.29;69.75;101108.47;5053171;28;20044;-82
2021/06/03 01:00:46;;;;;;;5.47;4.10;;;;;;;18.27;69.93;101110.50;5053772;28;20060;-80
2021/06/03 01:03:50;;;;;;;4.70;3.95;;;;;;;18.19;70.04;101113.22;5041989;28;20420;-80
2021/06/03 01:06:55;;;;;;;7.55;3.83;;;;;;;18.14;70.05;101113.72;5051940;28;20060;-78
2021/06/03 01:10:22;;;;;;;7.55;4.05;;;;;;;18.09;70.53;101110.63;5053089;28;20052;-78
2021/06/03 01:13:45;;;;;;;5.63;3.75;;;;;;;18.07;70.46;101120.78;5053773;28;20052;-78
2021/06/03 01:17:01;;;;;;;6.23;4.00;;;;;;;18.03;70.52;101126.72;5053950;28;20052;-82
2021/06/03 01:20:07;;;;;;;5.70;3.85;;;;;;;17.98;70.46;101123.66;5053633;28;20048;-84
2021/06/03 01:23:22;;;;;;;9.27;4.13;;;;;;;17.96;71.16;101126.53;5053015;28;20052;-78
2021/06/03 01:26:29;;;;;;;6.10;4.03;;;;;;;17.98;70.96;101129.06;5053089;28;20056;-78
2021/06/03 01:29:50;;;;;;;6.45;4.32;;;;;;;17.99;70.89;101130.78;5054094;28;20060;-80
2021/06/03 01:32:56;;;;;;;8.07;3.92;;;;;;;17.97;70.76;101133.66;5053777;28;20060;-83
2021/06/03 01:36:05;;;;;;;8.35;4.07;;;;;;;17.87;70.96;101126.66;5052795;28;20056;-79
2021/06/03 01:39:11;;;;;;;5.45;4.10;;;;;;;17.83;71.33;101130.69;5053682;28;20048;-84
2021/06/03 01:42:18;;;;;;;7.82;3.97;;;;;;;17.85;71.52;101126.00;5041474;28;20048;-79
2021/06/03 01:45:23;;;;;;;4.60;3.65;;;;;;;17.89;70.83;101130.94;5053571;28;20060;-80
2021/06/03 01:48:32;;;;;;;10.77;4.20;;;;;;;17.89;71.05;101122.78;5052692;28;20051;-78
2021/06/03 01:51:37;;;;;;;7.32;4.20;;;;;;;17.83;70.87;101115.25;5041077;28;20071;-82
2021/06/03 01:54:42;;;;;;;7.35;4.15;;;;;;;17.88;70.77;101115.63;5053003;28;20044;-84
2021/06/03 01:57:50;;;;;;;5.88;4.50;;;;;;;17.85;70.78;101109.69;5056781;28;20056;-82
2021/06/03 02:01:04;;;;;;;4.88;4.28;;;;;;;17.80;70.92;101122.91;5056295;28;20048;-77
2021/06/03 02:04:12;;;;;;;5.45;4.28;;;;;;;17.77;70.87;101109.66;5056864;28;20044;-81
2021/06/03 02:07:17;;;;;;;4.55;3.85;;;;;;;17.73;71.18;101111.81;5055471;28;20056;-78
2021/06/03 02:10:26;;;;;;;4.85;4.13;;;;;;;17.75;71.06;101117.09;5056003;28;20052;-77
2021/06/03 02:13:37;;;;;;;5.68;3.90;;;;;;;17.79;70.98;101113.03;5055052;28;20056;-76
2021/06/03 02:16:55;;;;;;;6.32;3.72;;;;;;;17.77;70.56;101112.34;5056537;28;20056;-81
2021/06/03 02:20:13;;;;;;;5.78;4.13;;;;;;;17.72;71.28;101115.56;5055620;28;20044;-77
2021/06/03 02:23:19;;;;;;;7.32;3.92;;;;;;;17.67;71.19;101117.06;5055945;28;20052;-82
2021/06/03 02:26:28;;;;;;;6.03;4.28;;;;;;;17.74;70.79;101123.53;5055543;28;20048;-83
2021/06/03 02:29:38;;;;;;;7.60;4.15;;;;;;;17.63;70.85;101121.13;5056299;28;20048;-79
2021/06/03 02:32:56;;;;;;;7.00;4.20;;;;;;;17.61;70.74;101123.13;5055543;28;20048;-82
2021/06/03 02:36:04;;;;;;;7.90;4.20;;;;;;;17.58;71.23;101118.03;5055468;28;20048;-78
2021/06/03 02:39:08;;;;;;;10.60;4.35;;;;;;;17.63;70.80;101126.56;5056011;28;20044;-78
2021/06/03 02:42:15;;;;;;;6.80;3.88;;;;;;;17.63;70.82;101123.84;5055563;28;20056;-80
2021/06/03 02:45:24;;;;;;;5.80;4.35;;;;;;;17.61;71.04;101118.53;5055456;28;20048;-82
2021/06/03 02:48:30;;;;;;;6.38;3.92;;;;;;;17.54;71.31;101134.63;5055781;28;20048;-84
2021/06/03 02:51:38;;;;;;;7.55;4.35;;;;;;;17.50;71.22;101133.19;5055989;28;20059;-77
2021/06/03 02:54:43;;;;;;;5.38;3.90;;;;;;;17.41;71.78;101126.03;5055214;28;20052;-80
2021/06/03 02:57:50;;;;;;;5.85;4.00;;;;;;;17.50;71.67;101138.63;5056096;28;20519;-77
2021/06/03 03:00:55;;;;;;;6.53;3.95;;;;;;;17.51;71.49;101142.19;5055345;28;20052;-76
2021/06/03 03:03:59;;;;;;;4.20;3.70;;;;;;;17.45;71.74;101143.69;5055138;28;20047;-79
2021/06/03 03:07:04;;;;;;;6.72;4.60;;;;;;;17.46;72.05;101164.41;5054066;28;20060;-78
2021/06/03 03:10:16;;;;;;;6.32;4.10;;;;;;;17.32;72.22;101164.13;5054573;28;20067;-77
2021/06/03 03:13:22;;;;;;;7.40;3.80;;;;;;;17.30;72.42;101158.88;5035774;28;20068;-81
2021/06/03 03:16:27;;;;;;;6.15;4.18;;;;;;;17.28;72.62;101162.75;5034999;28;20120;-82
2021/06/03 03:19:35;;;;;;;8.73;4.13;;;;;;;17.22;72.50;101153.38;5023937;28;20048;-74
2021/06/03 03:22:41;;;;;;;7.65;4.78;;;;;;;17.23;73.01;101162.38;5034732;28;20040;-81
2021/06/03 03:25:46;;;;;;;5.10;4.05;;;;;;;17.20;72.95;101168.13;5034502;28;20048;-79
2021/06/03 03:28:51;;;;;;;5.85;4.78;;;;;;;17.09;72.90;101154.78;5034038;28;20064;-77
2021/06/03 03:31:55;;;;;;;7.10;4.70;;;;;;;17.04;73.26;101157.09;5022474;28;20060;-83
2021/06/03 03:35:03;;;;;;;10.02;5.13;;;;;;;17.04;73.37;101151.69;5035092;28;20045;-79
2021/06/03 03:38:09;;;;;;;6.22;4.45;;;;;;;16.99;73.43;101151.28;5034314;28;20052;-82
2021/06/03 03:41:13;;;;;;;11.20;5.15;;;;;;;16.95;73.10;101163.47;5022884;28;20052;-78
2021/06/03 03:44:17;;;;;;;8.88;4.75;;;;;;;16.94;73.36;101159.09;5035418;28;20044;-78
2021/06/03 03:47:23;;;;;;;5.70;4.90;;;;;;;17.01;72.75;101152.84;5034189;28;20048;-81
2021/06/03 03:50:28;;;;;;;8.73;4.22;;;;;;;16.88;72.85;101147.00;5034205;28;20507;-80
2021/06/03 03:53:34;;;;;;;5.82;4.20;;;;;;;16.88;73.21;101160.56;5034230;28;20052;-81
2021/06/03 03:56:40;;;;;;;8.00;4.38;;;;;;;16.85;73.08;101159.00;5022821;28;20492;-79
2021/06/03 03:59:45;;;;;;;10.38;4.03;;;;;;;16.90;73.03;101163.94;5034034;28;20060;-77
2021/06/03 04:02:50;;;;;;;5.18;4.25;;;;;;;16.95;72.13;101161.63;5033857;28;20052;-77
2021/06/03 04:06:03;;;;;;;7.68;3.88;;;;;;;16.94;72.08;101168.03;5033983;28;20104;-81
2021/06/03 04:09:10;;;;;;;7.00;3.83;;;;;;;17.04;71.90;101171.53;5033891;28;20064;-82
2021/06/03 04:12:15;;;;;;;5.75;3.92;;;;;;;17.20;71.50;101168.13;5033772;28;20052;-79
2021/06/03 04:15:22;;;;;;;5.00;3.90;;;;;;;17.29;71.17;101167.16;5034611;28;20044;-79
2021/06/03 04:18:28;;;;;;;4.13;3.30;;;;;;;17.44;70.37;101176.44;5022088;28;20390;-79
2021/06/03 04:21:34;;;;;;;4.78;3.90;;;;;;;17.59;69.57;101185.72;5034031;28;20048;-78
2021/06/03 04:24:38;;;;;;;6.25;4.20;;;;;;;17.74;69.37;101184.13;5033641;28;20099;-81
2021/06/03 04:27:43;;;;;;;10.13;3.67;;;;;;;18.03;68.43;101195.50;5034004;28;20495;-75
2021/06/03 04:30:47;;;;;;;4.25;3.50;;;;;;;18.22;67.33;101194.38;5056415;28;20385;-78
2021/06/03 04:33:52;;;;;;;5.63;3.65;;;;;;;18.46;66.64;101189.09;5050827;28;20068;-74
2021/06/03 04:36:56;;;;;;;7.30;3.83;;;;;;;18.77;65.50;101197.50;5034707;28;20071;-75
2021/06/03 04:40:01;;;;;;;8.20;3.42;;;;;;;19.11;64.61;101197.38;5039267;28;20392;-79
2021/06/03 04:43:05;;;;;;;7.75;3.38;;;;;;;19.36;63.21;101191.78;5054172;28;20048;-74
2021/06/03 04:46:11;;;;;;;5.85;3.42;;;;;;;19.68;61.85;101188.19;5054034;28;20044;-79
2021/06/03 04:49:16;;;;;;;8.23;3.53;;;;;;;20.04;60.86;101192.19;5053707;28;20060;-78
2021/06/03 04:52:26;;;;;;;7.72;3.35;;;;;;;20.30;59.81;101202.00;5053763;28;20048;-86
2021/06/03 04:55:31;;;;;;;5.70;3.15;;;;;;;20.53;59.10;101192.00;5053918;28;20048;-83
2021/06/03 04:58:35;;;;;;;17.80;13.55;;;;;;;20.74;58.70;101201.25;5053844;28;20055;-78
2021/06/03 05:01:41;;;;;;;43.42;37.97;;;;;;;21.09;58.00;101199.84;5053633;28;20420;-82
2021/06/03 05:04:45;;;;;;;9.77;7.22;;;;;;;21.43;56.76;101185.75;5053492;28;20048;-85
2021/06/03 05:07:50;;;;;;;7.32;3.10;;;;;;;22.03;55.19;101196.59;5052913;28;20068;-77
2021/06/03 05:10:55;;;;;;;7.60;3.13;;;;;;;22.41;53.93;101197.34;5053636;28;20056;-81
2021/06/03 05:13:59;;;;;;;8.25;3.15;;;;;;;22.75;52.65;101199.47;5052961;28;20067;-79
2021/06/03 05:17:04;;;;;;;5.13;2.88;;;;;;;23.48;51.04;101205.50;5053600;28;20060;-85
2021/06/03 05:20:12;;;;;;;5.18;2.60;;;;;;;24.71;47.65;101201.03;5053035;28;20060;-79
2021/06/03 05:23:17;;;;;;;4.70;2.63;;;;;;;25.16;46.46;101203.06;5052751;28;20052;-78
2021/06/03 05:26:21;;;;;;;6.55;2.75;;;;;;;26.21;44.37;101207.75;5053455;28;20060;-82
2021/06/03 05:29:27;;;;;;;4.07;2.60;;;;;;;26.77;42.38;101211.56;5053415;28;20392;-83
2021/06/03 05:32:32;;;;;;;6.00;2.33;;;;;;;27.96;39.56;101201.38;5057293;28;20060;-79
2021/06/03 05:35:37;;;;;;;6.57;2.53;;;;;;;28.89;38.55;101205.63;5057041;28;20064;-80
2021/06/03 05:38:42;;;;;;;3.55;2.10;;;;;;;30.16;35.86;101206.97;5051482;28;20053;-77
2021/06/03 05:41:46;;;;;;;5.75;2.50;;;;;;;31.02;34.33;101194.97;5040778;28;20068;-78
2021/06/03 05:44:51;;;;;;;6.05;2.20;;;;;;;31.07;34.02;101195.91;5036807;28;20052;-74
2021/06/03 05:47:56;;;;;;;4.03;2.03;;;;;;;31.50;33.07;101207.25;5055149;28;20052;-82
2021/06/03 05:51:00;;;;;;;4.55;1.70;;;;;;;32.60;30.98;101198.97;5055976;28;20044;-76
2021/06/03 05:54:05;;;;;;;5.15;1.88;;;;;;;33.70;30.34;101204.03;5055581;28;20380;-78
2021/06/03 05:57:11;;;;;;;5.63;1.92;;;;;;;35.04;28.08;101207.06;5044435;28;20523;-79
2021/06/03 06:00:23;;;;;;;4.70;2.08;;;;;;;35.32;28.17;101213.25;5056489;28;20384;-76
2021/06/03 06:03:41;;;;;;;6.93;1.85;;;;;;;36.61;26.16;101209.81;5056307;28;20052;-78
2021/06/03 06:06:45;;;;;;;5.40;2.00;;;;;;;36.88;25.88;101213.03;5054676;28;20396;-73
2021/06/03 06:12:17;;;;;;;8.95;2.10;;;;;;;38.96;23.94;101220.09;5056290;28;20043;-73
2021/06/03 06:15:22;;;;;;;6.32;2.22;;;;;;;40.16;22.65;101226.91;5055361;28;20056;-77
2021/06/03 06:18:27;;;;;;;5.78;1.85;;;;;;;40.13;23.00;101228.38;5056096;28;20048;-74
2021/06/03 06:21:33;;;;;;;10.68;2.10;;;;;;;39.88;23.06;101227.94;5054160;28;20511;-74
2021/06/03 06:24:38;;;;;;;9.43;2.28;;;;;;;40.35;22.42;101227.66;5055425;28;20507;-76
2021/06/03 06:27:44;;;;;;;9.25;1.90;;;;;;;41.75;21.48;101222.00;5052412;28;20389;-73
2021/06/03 06:31:02;;;;;;;11.00;2.20;;;;;;;42.83;20.30;101216.72;5052165;28;20060;-77
2021/06/03 06:34:07;;;;;;;13.02;2.30;;;;;;;43.16;20.38;101232.91;5052445;28;20060;-75
2021/06/03 06:37:11;;;;;;;7.55;2.05;;;;;;;44.87;18.76;101237.41;5052390;28;20043;-75
2021/06/03 06:40:16;;;;;;;13.65;2.85;;;;;;;45.07;18.01;101233.75;5052904;28;20056;-74
2021/06/03 06:43:21;;;;;;;10.02;2.15;;;;;;;46.90;16.91;101233.16;5054092;28;20052;-81
2021/06/03 06:46:25;;;;;;;9.00;2.05;;;;;;;46.13;17.28;101239.81;5055706;28;20048;-79
2021/06/03 06:49:30;;;;;;;5.88;2.20;;;;;;;46.99;16.10;101234.69;5055268;28;20052;-75
2021/06/03 06:52:35;;;;;;;8.68;2.10;;;;;;;46.45;16.57;101245.47;5055612;28;20052;-80
2021/06/03 06:55:41;;;;;;;6.30;2.10;;;;;;;46.91;16.74;101249.03;5055506;28;20071;-82
2021/06/03 06:58:45;;;;;;;6.35;2.50;;;;;;;47.02;16.15;101247.34;5055547;28;20072;-80
2021/06/03 07:01:49;;;;;;;5.80;2.05;;;;;;;47.97;15.65;101241.75;5055495;28;20052;-80
2021/06/03 07:04:54;;;;;;;4.30;2.10;;;;;;;46.75;16.63;101240.41;5054579;28;20400;-77
2021/06/03 07:07:58;;;;;;;8.57;2.40;;;;;;;49.10;15.10;101238.13;5054722;28;20102;-82
2021/06/03 07:11:03;;;;;;;5.68;2.40;;;;;;;46.56;16.14;101245.00;5062074;28;20056;-81
2021/06/03 07:14:07;;;;;;;4.00;1.80;;;;;;;48.62;15.13;101245.94;5054543;28;20071;-78
2021/06/03 07:17:12;;;;;;;5.30;2.17;;;;;;;48.06;15.57;101244.41;5054755;28;20491;-82
2021/06/03 07:20:19;;;;;;;5.88;2.15;;;;;;;49.15;14.29;101261.47;5055288;28;20048;-82
2021/06/03 07:23:24;;;;;;;5.50;2.03;;;;;;;49.54;14.52;101256.66;5054343;28;20052;-78
2021/06/03 07:26:29;;;;;;;4.00;2.33;;;;;;;49.44;14.39;101257.25;5055080;28;20487;-80
2021/06/03 07:29:33;;;;;;;9.52;2.20;;;;;;;48.77;15.14;101253.63;5055002;28;20052;-81
2021/06/03 07:32:39;;;;;;;12.32;2.75;;;;;;;49.01;15.12;101257.47;5054670;28;20491;-80
2021/06/03 07:35:43;;;;;;;5.93;2.60;;;;;;;48.05;15.58;101254.97;5054733;28;20491;-82
2021/06/03 07:38:47;;;;;;;7.47;3.17;;;;;;;46.93;16.04;101253.19;5054842;28;20419;-82
2021/06/03 07:41:52;;;;;;;7.07;2.22;;;;;;;48.37;15.23;101260.72;5054680;28;20044;-83
2021/06/03 07:44:57;;;;;;;7.32;2.70;;;;;;;46.66;16.39;101258.75;5054952;28;20068;-76
2021/06/03 07:48:01;;;;;;;10.43;3.00;;;;;;;45.51;17.47;101260.63;5054633;28;20040;-82
2021/06/03 07:51:06;;;;;;;9.68;3.00;;;;;;;45.52;18.05;101252.94;5054680;28;20108;-80
2021/06/03 07:54:11;;;;;;;8.43;2.75;;;;;;;45.43;17.50;101261.56;5054238;28;20044;-81
2021/06/03 07:57:16;;;;;;;5.57;3.17;;;;;;;45.86;17.29;101249.78;5054464;28;20056;-79
2021/06/03 08:00:22;;;;;;;5.65;2.90;;;;;;;45.01;18.37;101266.31;5054390;28;20044;-83
2021/06/03 08:03:28;;;;;;;7.40;2.60;;;;;;;45.99;17.36;101257.22;5054320;28;20044;-83
2021/06/03 08:06:32;;;;;;;5.85;3.00;;;;;;;45.01;17.93;101254.97;5053972;28;20056;-81
2021/06/03 08:09:37;;;;;;;6.80;3.10;;;;;;;43.81;18.95;101255.41;5054237;28;20051;-83
2021/06/03 08:12:43;;;;;;;4.63;2.88;;;;;;;40.21;21.81;101257.75;5053931;28;20499;-83
2021/06/03 08:15:48;;;;;;;7.10;3.50;;;;;;;37.62;24.33;101254.91;5054033;28;20056;-77
2021/06/03 08:18:53;;;;;;;13.18;3.38;;;;;;;36.13;26.36;101256.06;5054080;28;20051;-83
2021/06/03 08:21:58;;;;;;;11.90;3.88;;;;;;;34.00;28.67;101257.22;5054011;28;20060;-76
2021/06/03 08:25:04;;;;;;;5.15;3.25;;;;;;;33.14;29.43;101255.56;5054016;28;20067;-73
2021/06/03 08:28:09;;;;;;;8.50;3.92;;;;;;;32.61;30.38;101261.00;5053906;28;20052;-76
2021/06/03 08:31:13;;;;;;;7.57;3.88;;;;;;;32.20;31.53;101258.69;5053969;28;20056;-76
2021/06/03 08:34:18;;;;;;;5.95;3.50;;;;;;;31.72;31.44;101253.75;5053876;28;20055;-77
2021/06/03 08:37:22;;;;;;;6.00;3.80;;;;;;;31.70;31.90;101255.94;5053844;28;20072;-78
2021/06/03 08:40:29;;;;;;;8.20;4.57;;;;;;;30.99;33.18;101254.56;5053732;28;20052;-77
2021/06/03 08:43:34;;;;;;;8.40;3.85;;;;;;;30.45;33.75;101257.81;5052933;28;20048;-77
2021/06/03 08:46:39;;;;;;;7.00;3.60;;;;;;;30.28;34.49;101252.97;5053787;28;20060;-81
2021/06/03 08:49:44;;;;;;;9.32;4.65;;;;;;;30.17;34.19;101261.31;5052912;28;20388;-80
2021/06/03 08:52:52;;;;;;;11.50;4.70;;;;;;;30.20;34.34;101256.13;5052822;28;20056;-79
2021/06/03 08:59:21;;;;;;;7.45;4.68;;;;;;;29.81;35.74;101245.75;5052718;28;20506;-80
2021/06/03 09:02:25;;;;;;;5.35;4.05;;;;;;;29.86;36.46;101254.19;5052731;28;20072;-81
2021/06/03 09:05:30;;;;;;;9.90;4.97;;;;;;;30.17;35.52;101253.00;5055148;28;20411;-77
2021/06/03 09:08:38;;;;;;;10.95;5.40;;;;;;;30.21;35.37;101245.88;5057656;28;20056;-78
2021/06/03 09:11:42;;;;;;;8.93;5.07;;;;;;;30.13;35.17;101247.09;5057567;28;20051;-77
2021/06/03 09:15:07;;;;;;;8.10;5.60;;;;;;;29.81;35.62;101254.06;5057560;28;20052;-75
2021/06/03 09:18:13;;;;;;;13.68;5.30;;;;;;;29.77;35.26;101241.78;5057514;28;20056;-77
2021/06/03 09:21:28;;;;;;;6.40;4.30;;;;;;;29.96;34.56;101237.81;5057457;28;20388;-77
2021/06/03 09:24:33;;;;;;;11.88;4.80;;;;;;;30.07;34.45;101238.91;5057399;28;20068;-76
2021/06/03 09:27:37;;;;;;;11.02;5.07;;;;;;;29.98;34.85;101235.66;5057367;28;20048;-77
2021/06/03 09:31:01;;;;;;;7.30;3.42;;;;;;;30.00;33.66;101238.16;5056440;28;20044;-77
2021/06/03 09:34:21;;;;;;;7.18;3.83;;;;;;;29.35;33.50;101229.88;5057220;28;20056;-75
2021/06/03 09:37:34;;;;;;;6.80;4.00;;;;;;;29.21;32.49;101236.66;5056338;28;20052;-75
2021/06/03 09:40:48;;;;;;;8.52;3.67;;;;;;;29.28;32.74;101231.06;5044709;28;20052;-82
2021/06/03 09:44:06;;;;;;;7.80;4.10;;;;;;;29.30;34.33;101228.91;5057024;28;20044;-80
2021/06/03 09:47:17;;;;;;;7.20;4.72;;;;;;;29.19;34.64;101230.53;5056088;28;20052;-78
2021/06/03 09:50:24;;;;;;;6.97;4.13;;;;;;;29.16;34.77;101227.38;5056968;28;20081;-78
2021/06/03 09:53:52;;;;;;;9.70;5.45;;;;;;;28.96;35.52;101235.97;5056891;28;20495;-77
2021/06/03 09:57:10;;;;;;;8.73;4.80;;;;;;;29.24;34.66;101235.34;5055899;28;20503;-79
2021/06/03 10:00:18;;;;;;;6.38;2.92;;;;;;;29.44;34.60;101227.59;5055900;28;20502;-79
2021/06/03 10:03:23;;;;;;;5.80;3.08;;;;;;;29.54;33.99;101222.31;5056715;28;20479;-81
2021/06/03 10:06:28;;;;;;;5.47;3.30;;;;;;;29.62;33.25;101219.22;5043868;28;20052;-74
2021/06/03 10:10:04;;;;;;;8.13;3.60;;;;;;;29.61;33.94;101218.38;5056246;28;20048;-78
2021/06/03 10:13:10;;;;;;;5.05;2.53;;;;;;;29.58;33.22;101226.28;5054491;28;20136;-75
2021/06/03 10:16:30;;;;;;;4.30;2.67;;;;;;;29.70;32.43;101218.88;5053877;28;20452;-74
2021/06/03 10:19:35;;;;;;;5.82;3.63;;;;;;;29.55;33.52;101224.03;5042708;28;20444;-74
2021/06/03 10:22:48;;;;;;;9.77;3.55;;;;;;;29.53;34.27;101224.25;5054135;28;20546;-74
2021/06/03 10:26:01;;;;;;;8.13;3.30;;;;;;;29.58;33.85;101232.69;5054056;28;20068;-76
2021/06/03 10:29:06;;;;;;;8.63;2.90;;;;;;;29.58;33.54;101223.53;5042375;28;20056;-74
2021/06/03 10:32:11;;;;;;;9.10;2.88;;;;;;;29.68;32.61;101221.03;5054081;28;20464;-75
2021/06/03 10:35:22;;;;;;;8.65;3.50;;;;;;;29.63;33.71;101224.50;5042469;28;20107;-77
2021/06/03 10:38:27;;;;;;;9.27;3.03;;;;;;;29.59;34.84;101216.94;5042910;28;20140;-75
2021/06/03 10:41:32;;;;;;;8.23;3.75;;;;;;;29.58;33.81;101224.38;5053920;28;20534;-76
2021/06/03 10:44:36;;;;;;;7.63;3.15;;;;;;;29.51;34.73;101218.13;5053564;28;20064;-74
2021/06/03 10:47:42;;;;;;;11.32;3.78;;;;;;;29.42;34.10;101218.69;5042207;28;20530;-77
2021/06/03 10:50:50;;;;;;;6.28;3.60;;;;;;;29.17;34.60;101218.84;5056076;28;20383;-75
2021/06/03 10:53:55;;;;;;;7.18;3.20;;;;;;;29.01;33.37;101202.88;5055658;28;20048;-74
2021/06/03 10:56:59;;;;;;;6.70;2.58;;;;;;;29.17;33.46;101210.53;5055535;28;20044;-77
2021/06/03 11:00:20;;;;;;;5.82;3.15;;;;;;;29.16;34.61;101208.84;5055737;28;20491;-75
2021/06/03 11:03:37;;;;;;;6.10;3.50;;;;;;;29.11;34.49;101203.16;5055438;28;20049;-75
2021/06/03 11:06:44;;;;;;;6.65;3.08;;;;;;;29.09;33.89;101198.94;5054866;28;20056;-77
2021/06/03 11:09:48;;;;;;;7.03;3.53;;;;;;;28.91;34.98;101197.13;5054528;28;20056;-81
2021/06/03 11:13:24;;;;;;;8.27;3.50;;;;;;;28.90;35.04;101193.50;5055294;28;20083;-77
2021/06/03 11:16:34;;;;;;;7.40;3.03;;;;;;;28.93;33.70;101192.19;5053116;28;20152;-76
2021/06/03 11:20:04;;;;;;;6.25;2.50;;;;;;;29.05;34.44;101195.84;5030136;28;20056;-79
2021/06/03 11:23:34;;;;;;;7.43;3.10;;;;;;;29.00;35.08;101182.72;5041267;28;20060;-80
2021/06/03 11:29:50;;;;;;;5.47;2.50;;;;;;;29.15;35.26;101185.03;5052660;28;20052;-76
2021/06/03 11:32:54;;;;;;;6.43;3.20;;;;;;;29.18;35.24;101179.06;5041402;28;20055;-79
2021/06/03 11:36:27;;;;;;;7.07;2.95;;;;;;;29.06;36.53;101180.09;5052803;28;20051;-75
2021/06/03 11:39:31;;;;;;;;;;;;;;;28.86;36.88;101181.19;5053290;28;20052;-78
2021/06/03 11:42:43;;;;;;;7.10;3.10;;;;;;;28.76;37.21;101180.91;5041272;28;20311;-82
2021/06/03 11:45:48;;;;;;;13.20;3.97;;;;;;;28.69;36.88;101171.88;5052591;28;20056;-81
2021/06/03 11:48:52;;;;;;;9.10;3.35;;;;;;;28.65;37.63;101167.91;5041209;28;20448;-84
2021/06/03 11:52:10;;;;;;;8.45;2.80;;;;;;;28.89;36.98;101166.91;5053295;28;20040;-81
2021/06/03 11:55:29;;;;;;;5.30;3.40;;;;;;;29.07;36.49;101165.16;5053757;28;20048;-80
2021/06/03 11:58:40;;;;;;;9.48;2.72;;;;;;;29.23;36.14;101162.63;5054206;28;20055;-78
2021/06/03 12:01:44;;;;;;;4.03;2.40;;;;;;;29.06;34.59;101157.97;5054433;28;20048;-77
2021/06/03 12:08:35;;;;;;;3.45;2.10;;;;;;;29.06;35.07;101153.25;5052693;28;20064;-75
2021/06/03 12:11:44;;;;;;;7.80;2.92;;;;;;;29.19;35.39;101143.91;5041958;28;20550;-76
2021/06/03 12:14:49;;;;;;;8.82;2.85;;;;;;;29.18;36.02;101150.53;5054331;28;20060;-78
2021/06/03 12:17:56;;;;;;;7.60;2.70;;;;;;;29.05;35.39;101136.91;5054119;28;20059;-78
2021/06/03 12:21:00;;;;;;;5.50;2.33;;;;;;;29.02;35.26;101118.88;5053214;28;20056;-78
2021/06/03 12:24:05;;;;;;;8.88;2.83;;;;;;;29.04;35.99;101125.00;5054066;28;20063;-81
2021/06/03 12:27:27;;;;;;;6.30;2.30;;;;;;;29.18;35.31;101125.66;5053431;28;20052;-76
2021/06/03 12:30:36;;;;;;;5.55;3.05;;;;;;;28.96;36.63;101125.38;5052855;28;20107;-78
2021/06/03 12:33:40;;;;;;;6.65;3.05;;;;;;;28.84;35.37;101125.31;5053866;28;20048;-76
2021/06/03 12:36:45;;;;;;;7.72;2.35;;;;;;;28.90;34.54;101116.09;5053026;28;20056;-76
2021/06/03 12:39:50;;;;;;;7.65;2.42;;;;;;;28.89;35.72;101122.69;5053011;28;20063;-77
2021/06/03 12:43:10;;;;;;;9.32;2.83;;;;;;;28.91;37.11;101125.25;5053766;28;20047;-83
2021/06/03 12:46:14;;;;;;;9.25;2.83;;;;;;;28.92;36.15;101115.84;5052768;28;20044;-82
2021/06/03 12:49:21;;;;;;;7.53;2.90;;;;;;;28.91;36.48;101116.94;5053499;28;20055;-81
2021/06/03 12:52:28;;;;;;;9.25;2.90;;;;;;;28.61;34.67;101102.28;5052600;28;20052;-85
2021/06/03 12:55:32;;;;;;;6.07;2.63;;;;;;;28.62;35.68;101101.19;5054020;28;20052;-85
2021/06/03 12:58:36;;;;;;;8.40;2.80;;;;;;;28.54;35.89;101099.56;5053787;28;20056;-85
2021/06/03 13:01:50;;;;;;;8.88;3.10;;;;;;;28.33;36.09;101105.63;5052716;28;20048;-85
2021/06/03 13:04:55;;;;;;;6.38;2.72;;;;;;;28.50;36.08;101097.50;5041442;28;20048;-85
2021/06/03 13:08:00;;;;;;;7.50;2.80;;;;;;;28.44;35.50;101098.47;5052890;28;20064;-86
2021/06/03 13:11:05;;;;;;;3.63;2.33;;;;;;;28.66;36.29;101085.84;5053999;28;20052;-85
2021/06/03 13:14:15;;;;;;;8.18;3.25;;;;;;;28.50;35.92;101092.00;5052826;28;20055;-85
2021/06/03 13:17:33;;;;;;;4.22;2.42;;;;;;;28.47;35.96;101095.25;5053464;28;20052;-85
2021/06/03 13:20:50;;;;;;;6.97;2.33;;;;;;;28.63;35.94;101084.41;5053510;28;20052;-84
2021/06/03 13:23:54;;;;;;;7.85;2.50;;;;;;;28.62;36.22;101084.63;5052688;28;20055;-85
2021/06/03 13:27:06;;;;;;;9.05;2.50;;;;;;;28.71;35.56;101078.56;5052583;28;20051;-84
2021/06/03 13:30:22;;;;;;;6.82;2.70;;;;;;;28.51;35.05;101072.44;5052835;28;20072;-84
2021/06/03 13:33:29;;;;;;;6.32;2.45;;;;;;;28.59;35.21;101080.38;5053635;28;20056;-84
2021/06/03 13:36:33;;;;;;;5.25;2.13;;;;;;;28.66;35.60;101081.19;5053356;28;20400;-83
2021/06/03 13:39:44;;;;;;;11.98;2.40;;;;;;;28.72;35.85;101069.16;5052562;28;20044;-83
2021/06/03 13:42:59;;;;;;;11.90;8.13;;;;;;;28.83;35.57;101071.13;5052556;28;20044;-82
2021/06/03 13:46:07;;;;;;;7.15;2.70;;;;;;;28.98;35.09;101077.06;5053168;28;20059;-84
2021/06/03 13:49:27;;;;;;;9.48;2.30;;;;;;;29.06;35.25;101066.72;5053303;28;20380;-84
2021/06/03 13:52:43;;;;;;;4.20;2.20;;;;;;;28.97;35.84;101061.53;5055537;28;20047;-84
2021/06/03 13:55:55;;;;;;;6.15;2.35;;;;;;;29.07;35.15;101065.63;5056977;28;20052;-85
2021/06/03 13:59:09;;;;;;;6.97;2.63;;;;;;;28.98;35.44;101060.47;5056571;28;20044;-85
2021/06/03 14:02:16;;;;;;;7.60;2.60;;;;;;;28.78;35.11;101053.56;5056733;28;20060;-85
2021/06/03 14:05:20;;;;;;;8.10;2.65;;;;;;;28.70;34.76;101054.75;5056656;28;20044;-84
2021/06/03 14:08:32;;;;;;;4.55;2.60;;;;;;;28.64;34.53;101052.91;5056560;28;20048;-85
2021/06/03 14:12:30;;;;;;;7.97;2.80;;;;;;;28.62;34.46;101052.31;5055414;28;20044;-83
2021/06/03 14:15:40;;;;;;;4.55;2.15;;;;;;;28.50;35.23;101050.56;5055668;28;20123;-76
2021/06/03 14:18:45;;;;;;;6.38;2.47;;;;;;;28.62;35.98;101045.94;5056638;28;20052;-85
2021/06/03 14:21:57;;;;;;;6.22;2.38;;;;;;;28.84;35.57;101053.44;5032544;28;20044;-82
2021/06/03 14:25:08;;;;;;;5.53;2.75;;;;;;;28.84;35.89;101041.53;5055472;28;20044;-85
2021/06/03 14:28:14;;;;;;;6.88;2.53;;;;;;;28.78;35.54;101048.03;5055311;28;20076;-83
2021/06/03 14:31:48;;;;;;;7.72;2.50;;;;;;;28.63;34.70;101045.72;5055168;28;20498;-79
2021/06/03 14:34:54;;;;;;;6.03;2.78;;;;;;;28.53;35.51;101052.84;5056154;28;20048;-84
2021/06/03 14:38:01;;;;;;;5.75;2.55;;;;;;;28.51;35.45;101050.34;5056085;28;20056;-84
2021/06/03 14:41:06;;;;;;;7.22;2.25;;;;;;;28.55;35.10;101039.63;5055966;28;20052;-85
2021/06/03 14:44:10;;;;;;;8.55;2.92;;;;;;;28.44;35.20;101045.97;5055917;28;20052;-84
2021/06/03 14:47:15;;;;;;;11.07;2.42;;;;;;;28.64;35.73;101039.09;5054759;28;20499;-78